createdAt,value
2019-02-10T00:00:21.777Z,100272.77
2019-02-10T00:02:48.816Z,100267.20
2019-02-10T00:05:16.732Z,100278.80
2019-02-10T00:07:43.281Z,100278.92
2019-02-10T00:10:09.851Z,100283.19
2019-02-10T00:12:36.500Z,100287.23
2019-02-10T00:15:06.507Z,100288.05
2019-02-10T00:17:33.294Z,100291.67
2019-02-10T00:19:59.975Z,100295.46
2019-02-10T00:22:26.587Z,100294.20
2019-02-10T00:24:53.200Z,100293.02
2019-02-10T00:27:19.895Z,100297.76
2019-02-10T00:29:46.505Z,100300.35
2019-02-10T00:32:13.145Z,100297.98
2019-02-10T00:34:39.951Z,100294.55
2019-02-10T00:37:06.564Z,100303.52
2019-02-10T00:39:33.154Z,100301.89
2019-02-10T00:42:02.938Z,100294.89
2019-02-10T00:44:29.504Z,100298.81
2019-02-10T00:46:56.055Z,100303.63
2019-02-10T00:50:19.200Z,100291.95
2019-02-10T00:52:45.819Z,100295.36
2019-02-10T00:55:12.451Z,100313.14
2019-02-10T00:57:39.134Z,100302.24
2019-02-10T01:00:08.122Z,100298.69
2019-02-10T01:02:34.751Z,100296.46
2019-02-10T01:05:01.327Z,100302.55
2019-02-10T01:07:27.974Z,100295.58
2019-02-10T01:09:55.732Z,100300.94
2019-02-10T01:12:22.423Z,100298.04
2019-02-10T01:14:48.963Z,100289.20
2019-02-10T01:17:15.541Z,100295.79
2019-02-10T01:19:42.155Z,100288.42
2019-02-10T01:22:08.703Z,100287.87
2019-02-10T01:24:35.285Z,100281.52
2019-02-10T01:27:01.885Z,100277.07
2019-02-10T01:29:28.441Z,100283.23
2019-02-10T01:31:55.142Z,100286.83
2019-02-10T01:34:22.131Z,100281.20
2019-02-10T01:36:49.976Z,100273.25
2019-02-10T01:39:17.762Z,100277.73
2019-02-10T01:41:44.337Z,100272.27
2019-02-10T01:44:10.938Z,100269.16
2019-02-10T01:46:37.692Z,100267.99
2019-02-10T01:49:04.275Z,100275.34
2019-02-10T01:51:33.689Z,100279.59
2019-02-10T01:54:00.334Z,100280.47
2019-02-10T01:56:26.888Z,100279.28
2019-02-10T01:58:53.443Z,100272.44
2019-02-10T02:01:20.008Z,100277.63
2019-02-10T02:03:46.615Z,100275.64
2019-02-10T02:06:13.235Z,100281.70
2019-02-10T02:08:39.831Z,100279.05
2019-02-10T02:11:06.701Z,100271.34
2019-02-10T02:13:33.278Z,100277.32
2019-02-10T02:15:59.873Z,100277.77
2019-02-10T02:18:26.527Z,100274.27
2019-02-10T02:20:53.119Z,100279.38
2019-02-10T02:23:26.016Z,100278.17
2019-02-10T02:25:52.596Z,100276.84
2019-02-10T02:28:19.167Z,100277.22
2019-02-10T02:30:45.775Z,100269.05
2019-02-10T02:33:12.444Z,100277.67
2019-02-10T02:35:39.193Z,100274.59
2019-02-10T02:38:05.857Z,100271.52
2019-02-10T02:40:34.336Z,100273.56
2019-02-10T02:43:00.992Z,100275.36
2019-02-10T02:45:27.531Z,100274.44
2019-02-10T02:47:54.089Z,100272.09
2019-02-10T02:50:20.779Z,100267.06
2019-02-10T02:52:47.398Z,100272.91
2019-02-10T02:55:15.296Z,100265.69
2019-02-10T02:57:45.185Z,100276.14
2019-02-10T03:00:11.755Z,100275.58
2019-02-10T03:02:41.540Z,100259.42
2019-02-10T03:05:09.178Z,100269.50
2019-02-10T03:07:35.734Z,100256.52
2019-02-10T03:10:05.339Z,100266.59
2019-02-10T03:12:31.918Z,100263.39
2019-02-10T03:14:58.474Z,100260.29
2019-02-10T03:17:25.080Z,100261.46
2019-02-10T03:19:51.651Z,100262.12
2019-02-10T03:22:18.236Z,100261.17
2019-02-10T03:24:44.811Z,100269.72
2019-02-10T03:27:11.408Z,100272.55
2019-02-10T03:29:38.091Z,100266.23
2019-02-10T03:32:04.712Z,100262.67
2019-02-10T03:34:31.306Z,100261.85
2019-02-10T03:36:57.917Z,100273.09
2019-02-10T03:39:24.532Z,100269.47
2019-02-10T03:41:51.106Z,100275.45
2019-02-10T03:44:17.689Z,100275.04
2019-02-10T03:46:47.209Z,100269.66
2019-02-10T03:49:13.819Z,100280.30
2019-02-10T03:51:40.385Z,100265.95
2019-02-10T03:54:06.996Z,100269.41
2019-02-10T03:56:33.592Z,100262.50
2019-02-10T03:59:00.291Z,100262.89
2019-02-10T04:01:28.086Z,100254.17
2019-02-10T04:03:57.902Z,100259.64
2019-02-10T04:06:24.517Z,100253.53
2019-02-10T04:08:51.056Z,100253.30
2019-02-10T04:11:17.648Z,100253.44
2019-02-10T04:13:44.336Z,100251.50
2019-02-10T04:16:10.906Z,100249.83
2019-02-10T04:18:37.540Z,100246.12
2019-02-10T04:21:04.141Z,100250.76
2019-02-10T04:23:30.700Z,100248.34
2019-02-10T04:25:57.443Z,100250.98
2019-02-10T04:28:24.026Z,100249.52
2019-02-10T04:30:50.680Z,100246.99
2019-02-10T04:33:17.326Z,100244.36
2019-02-10T04:35:43.906Z,100243.23
2019-02-10T04:38:10.548Z,100242.84
2019-02-10T04:40:37.110Z,100235.73
2019-02-10T04:43:03.696Z,100238.98
2019-02-10T04:45:30.309Z,100231.77
2019-02-10T04:47:56.876Z,100230.92
2019-02-10T04:50:23.463Z,100233.55
2019-02-10T04:52:50.059Z,100235.22
2019-02-10T04:55:16.615Z,100239.44
2019-02-10T04:57:43.219Z,100235.79
2019-02-10T05:00:09.859Z,100232.66
2019-02-10T05:02:36.611Z,100231.20
2019-02-10T05:05:03.517Z,100230.52
2019-02-10T05:07:30.128Z,100236.23
2019-02-10T05:09:56.732Z,100234.77
2019-02-10T05:12:23.340Z,100234.06
2019-02-10T05:14:49.993Z,100235.89
2019-02-10T05:17:16.549Z,100237.33
2019-02-10T05:19:43.196Z,100243.13
2019-02-10T05:22:09.795Z,100244.08
2019-02-10T05:24:36.349Z,100247.53
2019-02-10T05:27:02.942Z,100247.02
2019-02-10T05:29:29.561Z,100245.58
2019-02-10T05:31:56.187Z,100249.67
2019-02-10T05:34:22.843Z,100248.39
2019-02-10T05:36:49.437Z,100244.09
2019-02-10T05:39:16.044Z,100245.11
2019-02-10T05:41:42.605Z,100242.85
2019-02-10T05:44:09.212Z,100244.84
2019-02-10T05:46:35.857Z,100247.05
2019-02-10T05:49:02.400Z,100247.02
2019-02-10T05:51:29.049Z,100255.70
2019-02-10T05:53:55.721Z,100246.73
2019-02-10T05:56:22.288Z,100257.50
2019-02-10T05:58:48.877Z,100257.87
2019-02-10T06:01:21.215Z,100260.64
2019-02-10T06:03:47.850Z,100254.71
2019-02-10T06:06:14.500Z,100249.36
2019-02-10T06:08:41.110Z,100252.30
2019-02-10T06:11:07.703Z,100247.09
2019-02-10T06:13:34.277Z,100250.06
2019-02-10T06:16:00.957Z,100246.59
2019-02-10T06:18:27.626Z,100244.95
2019-02-10T06:20:54.240Z,100249.83
2019-02-10T06:23:20.903Z,100254.83
2019-02-10T06:25:47.454Z,100259.84
2019-02-10T06:28:14.098Z,100252.66
2019-02-10T06:30:40.711Z,100261.34
2019-02-10T06:33:07.343Z,100262.30
2019-02-10T06:35:33.912Z,100257.80
2019-02-10T06:38:00.500Z,100256.48
2019-02-10T06:40:27.127Z,100245.13
2019-02-10T06:42:53.702Z,100245.10
2019-02-10T06:45:20.270Z,100242.38
2019-02-10T06:47:46.864Z,100244.84
2019-02-10T06:50:13.461Z,100253.30
2019-02-10T06:52:40.077Z,100253.53
2019-02-10T06:55:08.382Z,100255.34
2019-02-10T06:57:34.991Z,100260.23
2019-02-10T07:00:03.479Z,100259.11
2019-02-10T07:02:38.427Z,100270.53
2019-02-10T07:05:09.428Z,100272.23
2019-02-10T07:07:37.085Z,100273.12
2019-02-10T07:10:06.409Z,100279.23
2019-02-10T07:12:39.875Z,100275.33
2019-02-10T07:15:12.375Z,100270.34
2019-02-10T07:17:41.852Z,100281.05
2019-02-10T07:20:14.136Z,100283.52
2019-02-10T07:22:40.766Z,100286.61
2019-02-10T07:25:13.140Z,100275.22
2019-02-10T07:27:39.994Z,100282.89
2019-02-10T07:30:07.770Z,100279.10
2019-02-10T07:32:40.123Z,100291.66
2019-02-10T07:35:12.475Z,100287.70
2019-02-10T07:37:44.835Z,100281.22
2019-02-10T07:40:15.254Z,100270.14
2019-02-10T07:42:47.559Z,100277.90
2019-02-10T07:45:19.974Z,100275.89
2019-02-10T07:47:52.398Z,100272.05
2019-02-10T07:50:26.664Z,100270.72
2019-02-10T07:52:59.012Z,100264.31
2019-02-10T07:55:29.425Z,100272.34
2019-02-10T07:58:00.959Z,100267.17
2019-02-10T08:00:32.626Z,100274.33
2019-02-10T08:03:06.870Z,100262.94
2019-02-10T08:05:39.317Z,100258.68
2019-02-10T08:08:11.728Z,100256.59
2019-02-10T08:10:42.260Z,100250.76
2019-02-10T08:13:14.709Z,100249.25
2019-02-10T08:15:45.131Z,100250.69
2019-02-10T08:18:17.471Z,100256.39
2019-02-10T08:20:47.878Z,100243.50
2019-02-10T08:23:20.283Z,100237.98
2019-02-10T08:25:50.657Z,100230.77
2019-02-10T08:28:23.034Z,100229.35
2019-02-10T08:30:53.746Z,100231.88
2019-02-10T08:33:26.155Z,100228.33
2019-02-10T08:35:58.517Z,100219.83
2019-02-10T08:38:28.922Z,100210.94
2019-02-10T08:41:00.577Z,100219.79
2019-02-10T08:43:32.342Z,100217.72
2019-02-10T08:46:04.754Z,100211.60
2019-02-10T08:48:35.355Z,100206.53
2019-02-10T08:51:09.530Z,100210.02
2019-02-10T08:53:36.587Z,100206.86
2019-02-10T08:56:06.256Z,100199.11
2019-02-10T08:58:32.889Z,100205.98
2019-02-10T09:00:59.514Z,100198.75
2019-02-10T09:03:26.126Z,100194.33
2019-02-10T09:05:55.978Z,100196.73
2019-02-10T09:08:22.668Z,100193.71
2019-02-10T09:10:50.209Z,100187.45
2019-02-10T09:13:16.931Z,100184.69
2019-02-10T09:15:43.520Z,100186.39
2019-02-10T09:18:10.112Z,100175.05
2019-02-10T09:20:36.796Z,100184.18
2019-02-10T09:23:03.450Z,100182.29
2019-02-10T09:26:26.327Z,100176.75
2019-02-10T09:28:52.992Z,100170.88
2019-02-10T09:31:19.667Z,100170.60
2019-02-10T09:33:46.282Z,100163.13
2019-02-10T09:36:12.872Z,100163.30
2019-02-10T09:38:39.740Z,100164.86
2019-02-10T09:41:06.499Z,100156.27
2019-02-10T09:43:33.219Z,100155.86
2019-02-10T09:45:59.864Z,100159.63
2019-02-10T09:48:26.465Z,100160.45
2019-02-10T09:50:53.088Z,100153.95
2019-02-10T09:53:19.722Z,100149.50
2019-02-10T09:55:46.375Z,100148.73
2019-02-10T09:58:15.724Z,100146.23
2019-02-10T10:00:42.301Z,100135.11
2019-02-10T10:03:08.979Z,100134.51
2019-02-10T10:05:35.554Z,100135.49
2019-02-10T10:08:02.127Z,100135.45
2019-02-10T10:10:28.979Z,100133.55
2019-02-10T10:12:55.534Z,100123.33
2019-02-10T10:15:22.164Z,100121.13
2019-02-10T10:17:48.771Z,100119.41
2019-02-10T10:20:17.326Z,100112.08
2019-02-10T10:22:43.943Z,100110.42
2019-02-10T10:25:10.558Z,100108.02
2019-02-10T10:27:37.294Z,100110.11
2019-02-10T10:30:09.638Z,100101.01
2019-02-10T10:32:39.077Z,100098.97
2019-02-10T10:35:06.638Z,100092.02
2019-02-10T10:37:33.440Z,100092.05
2019-02-10T10:40:00.012Z,100081.84
2019-02-10T10:42:26.747Z,100080.80
2019-02-10T10:44:53.306Z,100073.53
2019-02-10T10:47:19.890Z,100064.21
2019-02-10T10:49:46.520Z,100061.89
2019-02-10T10:52:13.130Z,100056.97
2019-02-10T10:54:42.842Z,100049.16
2019-02-10T10:57:08.422Z,100043.00
2019-02-10T10:59:35.004Z,100039.58
2019-02-10T11:02:03.584Z,100030.66
2019-02-10T11:04:30.263Z,100032.38
2019-02-10T11:06:56.827Z,100019.45
2019-02-10T11:09:23.457Z,100023.72
2019-02-10T11:11:51.883Z,100014.80
2019-02-10T11:14:18.663Z,100021.53
2019-02-10T11:16:45.300Z,100009.14
2019-02-10T11:19:11.895Z,100013.02
2019-02-10T11:21:38.557Z,100000.27
2019-02-10T11:24:05.187Z,99999.11
2019-02-10T11:26:31.818Z,99992.31
2019-02-10T11:28:58.594Z,99988.09
2019-02-10T11:31:25.252Z,99982.91
2019-02-10T11:33:51.883Z,99961.95
2019-02-10T11:36:18.519Z,99962.53
2019-02-10T11:38:45.148Z,99951.44
2019-02-10T11:41:11.815Z,99940.37
2019-02-10T11:43:38.605Z,99936.55
2019-02-10T11:46:05.388Z,99931.13
2019-02-10T11:48:31.997Z,99927.85
2019-02-10T11:50:58.618Z,99927.46
2019-02-10T11:53:25.189Z,99916.72
2019-02-10T11:56:48.427Z,99911.91
2019-02-10T11:59:15.121Z,99904.63
2019-02-10T12:01:41.758Z,99902.36
2019-02-10T12:04:08.438Z,99890.26
2019-02-10T12:06:35.085Z,99892.95
2019-02-10T12:09:01.717Z,99890.02
2019-02-10T12:11:32.700Z,99879.87
2019-02-10T12:13:59.356Z,99883.37
2019-02-10T12:16:26.159Z,99876.81
2019-02-10T12:18:52.788Z,99870.87
2019-02-10T12:21:19.470Z,99863.31
2019-02-10T12:23:46.218Z,99868.17
2019-02-10T12:26:12.972Z,99858.89
2019-02-10T12:28:39.631Z,99857.81
2019-02-10T12:31:06.264Z,99842.56
2019-02-10T12:33:32.825Z,99834.83
2019-02-10T12:35:59.446Z,99839.39
2019-02-10T12:38:29.283Z,99825.94
2019-02-10T12:40:55.922Z,99826.29
2019-02-10T12:43:22.476Z,99818.13
2019-02-10T12:45:49.123Z,99820.61
2019-02-10T12:48:15.763Z,99807.06
2019-02-10T12:50:42.382Z,99799.42
2019-02-10T12:53:08.997Z,99800.57
2019-02-10T12:55:35.564Z,99794.95
2019-02-10T12:58:02.189Z,99799.02
2019-02-10T13:00:28.859Z,99792.60
2019-02-10T13:02:55.473Z,99787.75
2019-02-10T13:05:22.159Z,99777.16
2019-02-10T13:07:48.737Z,99773.89
2019-02-10T13:10:17.802Z,99772.20
2019-02-10T13:12:44.032Z,99765.55
2019-02-10T13:15:11.825Z,99759.14
2019-02-10T13:17:38.572Z,99758.19
2019-02-10T13:20:08.966Z,99759.82
2019-02-10T13:22:35.560Z,99748.84
2019-02-10T13:25:05.129Z,99745.06
2019-02-10T13:27:31.745Z,99742.42
2019-02-10T13:29:58.426Z,99736.86
2019-02-10T13:32:25.035Z,99740.73
2019-02-10T13:34:51.632Z,99731.11
2019-02-10T13:37:18.318Z,99728.98
2019-02-10T13:39:44.916Z,99728.98
2019-02-10T13:42:11.495Z,99725.81
2019-02-10T13:44:38.203Z,99724.17
2019-02-10T13:47:04.929Z,99718.39
2019-02-10T13:49:31.475Z,99713.81
2019-02-10T13:51:58.046Z,99712.09
2019-02-10T13:54:24.673Z,99701.53
2019-02-10T13:56:52.518Z,99699.22
2019-02-10T13:59:19.141Z,99691.64
2019-02-10T14:01:45.729Z,99690.72
2019-02-10T14:04:12.378Z,99690.80
2019-02-10T14:06:39.081Z,99676.59
2019-02-10T14:09:06.330Z,99686.09
2019-02-10T14:11:33.145Z,99676.95
2019-02-10T14:13:59.836Z,99666.39
2019-02-10T14:16:26.490Z,99671.94
2019-02-10T14:18:53.297Z,99665.60
2019-02-10T14:21:20.081Z,99660.83
2019-02-10T14:23:46.651Z,99654.42
2019-02-10T14:26:13.261Z,99643.64
2019-02-10T14:28:39.929Z,99646.98
2019-02-10T14:31:06.599Z,99645.83
2019-02-10T14:33:38.743Z,99642.47
2019-02-10T14:36:02.226Z,99644.78
2019-02-10T14:38:36.143Z,99647.48
2019-02-10T14:40:57.393Z,99642.17
2019-02-10T14:43:24.103Z,99633.48
2019-02-10T14:45:50.662Z,99616.14
2019-02-10T14:48:17.238Z,99615.47
2019-02-10T14:50:43.871Z,99612.83
2019-02-10T14:53:10.610Z,99602.82
2019-02-10T14:55:37.206Z,99597.98
2019-02-10T14:58:03.778Z,99590.52
2019-02-10T15:00:30.389Z,99592.13
2019-02-10T15:02:57.065Z,99584.05
2019-02-10T15:05:23.663Z,99573.45
2019-02-10T15:07:50.328Z,99572.69
2019-02-10T15:10:20.874Z,99562.61
2019-02-10T15:12:47.537Z,99563.08
2019-02-10T15:15:14.117Z,99558.39
2019-02-10T15:17:40.837Z,99556.53
2019-02-10T15:20:09.677Z,99546.02
2019-02-10T15:22:36.271Z,99542.44
2019-02-10T15:25:07.816Z,99535.31
2019-02-10T15:27:35.639Z,99535.83
2019-02-10T15:30:07.116Z,99533.24
2019-02-10T15:32:33.707Z,99516.69
2019-02-10T15:35:00.349Z,99512.03
2019-02-10T15:37:26.967Z,99501.19
2019-02-10T15:39:53.554Z,99498.56
2019-02-10T15:42:20.105Z,99488.06
2019-02-10T15:44:46.722Z,99492.13
2019-02-10T15:47:13.371Z,99476.13
2019-02-10T15:49:40.178Z,99484.81
2019-02-10T15:52:06.774Z,99474.02
2019-02-10T15:54:33.328Z,99475.25
2019-02-10T15:57:01.163Z,99466.01
2019-02-10T15:59:27.776Z,99450.81
2019-02-10T16:01:54.368Z,99456.88
2019-02-10T16:04:22.143Z,99455.02
2019-02-10T16:06:48.787Z,99465.35
2019-02-10T16:09:15.350Z,99457.52
2019-02-10T16:11:41.992Z,99449.41
2019-02-10T16:14:09.656Z,99449.63
2019-02-10T16:16:36.222Z,99437.59
2019-02-10T16:19:02.769Z,99432.03
2019-02-10T16:21:29.390Z,99433.46
2019-02-10T16:23:55.954Z,99423.73
2019-02-10T16:26:22.534Z,99419.23
2019-02-10T16:28:49.180Z,99418.88
2019-02-10T16:31:15.754Z,99403.09
2019-02-10T16:33:42.392Z,99403.77
2019-02-10T16:36:09.021Z,99395.09
2019-02-10T16:38:35.606Z,99393.07
2019-02-10T16:41:06.419Z,99394.38
2019-02-10T16:43:30.726Z,99386.95
2019-02-10T16:45:57.376Z,99375.41
2019-02-10T16:48:23.983Z,99381.48
2019-02-10T16:50:50.620Z,99377.52
2019-02-10T16:53:17.316Z,99374.83
2019-02-10T16:55:44.049Z,99375.73
2019-02-10T16:58:10.637Z,99372.88
2019-02-10T17:00:37.336Z,99371.83
2019-02-10T17:03:04.006Z,99364.18
2019-02-10T17:05:30.668Z,99361.30
2019-02-10T17:07:57.358Z,99358.56
2019-02-10T17:10:23.967Z,99367.00
2019-02-10T17:12:50.609Z,99364.02
2019-02-10T17:15:17.161Z,99361.72
2019-02-10T17:17:43.794Z,99345.52
2019-02-10T17:20:11.741Z,99350.14
2019-02-10T17:22:39.881Z,99345.75
2019-02-10T17:25:11.676Z,99335.03
2019-02-10T17:27:38.304Z,99328.91
2019-02-10T17:30:10.031Z,99325.43
2019-02-10T17:32:36.657Z,99322.30
2019-02-10T17:35:07.949Z,99316.42
2019-02-10T17:37:34.652Z,99311.00
2019-02-10T17:40:01.268Z,99305.17
2019-02-10T17:42:27.947Z,99302.56
2019-02-10T17:44:54.684Z,99293.99
2019-02-10T17:47:21.389Z,99289.49
2019-02-10T17:49:48.137Z,99287.45
2019-02-10T17:52:14.929Z,99285.77
2019-02-10T17:54:42.167Z,99285.77
2019-02-10T17:57:08.936Z,99269.83
2019-02-10T17:59:35.634Z,99267.03
2019-02-10T18:02:02.382Z,99258.65
2019-02-10T18:04:37.221Z,99248.97
2019-02-10T18:06:57.605Z,99243.86
2019-02-10T18:09:24.268Z,99244.84
2019-02-10T18:11:50.954Z,99242.66
2019-02-10T18:14:19.444Z,99239.58
2019-02-10T18:16:47.974Z,99238.06
2019-02-10T18:19:16.497Z,99226.39
2019-02-10T18:21:45.085Z,99239.42
2019-02-10T18:24:15.699Z,99241.48
2019-02-10T18:26:44.379Z,99243.25
2019-02-10T18:29:14.177Z,99233.31
2019-02-10T18:31:42.782Z,99226.72
2019-02-10T18:34:11.443Z,99229.06
2019-02-10T18:36:40.195Z,99219.79
2019-02-10T18:39:08.762Z,99223.66
2019-02-10T18:41:39.278Z,99218.31
2019-02-10T18:44:10.383Z,99225.34
2019-02-10T18:46:39.169Z,99223.06
2019-02-10T18:49:07.674Z,99217.00
2019-02-10T18:51:38.543Z,99210.72
2019-02-10T18:54:07.447Z,99218.75
2019-02-10T18:56:36.213Z,99214.30
2019-02-10T18:59:05.420Z,99210.72
2019-02-10T19:01:33.972Z,99206.09
2019-02-10T19:04:02.571Z,99210.98
2019-02-10T19:06:31.190Z,99212.42
2019-02-10T19:09:03.842Z,99216.98
2019-02-10T19:11:30.153Z,99211.89
2019-02-10T19:14:01.674Z,99207.97
2019-02-10T19:16:31.300Z,99205.50
2019-02-10T19:18:57.907Z,99194.98
2019-02-10T19:21:26.551Z,99195.31
2019-02-10T19:23:55.459Z,99182.39
2019-02-10T19:26:24.401Z,99182.00
2019-02-10T19:29:52.113Z,99170.69
2019-02-10T19:32:20.921Z,99157.14
2019-02-10T19:34:49.734Z,99163.27
2019-02-10T19:37:18.559Z,99151.98
2019-02-10T19:39:47.490Z,99147.16
2019-02-10T19:42:16.600Z,99143.62
2019-02-10T19:44:45.608Z,99150.14
2019-02-10T19:47:14.448Z,99149.38
2019-02-10T19:49:43.425Z,99147.67
2019-02-10T19:52:12.309Z,99141.48
2019-02-10T19:54:41.304Z,99136.25
2019-02-10T19:57:10.341Z,99151.83
2019-02-10T19:59:39.422Z,99144.67
2019-02-10T20:02:08.582Z,99142.97
2019-02-10T20:04:37.811Z,99144.16
2019-02-10T20:08:03.495Z,99137.42
2019-02-10T20:10:32.628Z,99140.70
2019-02-10T20:13:01.487Z,99150.33
2019-02-10T20:15:30.415Z,99148.52
2019-02-10T20:18:00.479Z,99143.58
2019-02-10T20:20:29.407Z,99158.89
2019-02-10T20:22:56.663Z,99161.11
2019-02-10T20:25:25.553Z,99157.73
2019-02-10T20:27:54.383Z,99159.17
2019-02-10T20:30:23.308Z,99159.99
2019-02-10T20:32:54.162Z,99165.28
2019-02-10T20:35:23.184Z,99160.72
2019-02-10T20:37:52.005Z,99155.19
2019-02-10T20:40:20.840Z,99151.65
2019-02-10T20:42:49.826Z,99144.59
2019-02-10T20:45:18.810Z,99133.77
2019-02-10T20:47:47.746Z,99130.20
2019-02-10T20:50:16.759Z,99120.92
2019-02-10T20:52:46.514Z,99125.81
2019-02-10T20:55:15.824Z,99117.66
2019-02-10T20:57:44.624Z,99119.88
2019-02-10T21:00:13.509Z,99108.05
2019-02-10T21:02:42.447Z,99104.14
2019-02-10T21:05:11.931Z,99104.34
2019-02-10T21:07:40.883Z,99093.14
2019-02-10T21:10:10.772Z,99088.94
2019-02-10T21:12:40.108Z,99095.00
2019-02-10T21:15:10.671Z,99077.20
2019-02-10T21:17:39.667Z,99087.52
2019-02-10T21:20:10.973Z,99071.16
2019-02-10T21:22:39.835Z,99068.48
2019-02-10T21:25:09.413Z,99073.03
2019-02-10T21:27:38.362Z,99063.37
2019-02-10T21:30:11.262Z,99057.46
2019-02-10T21:32:40.290Z,99059.73
2019-02-10T21:35:09.161Z,99052.88
2019-02-10T21:37:38.094Z,99046.89
2019-02-10T21:40:08.864Z,99029.61
2019-02-10T21:42:37.794Z,99042.17
2019-02-10T21:45:08.661Z,99032.52
2019-02-10T21:47:37.603Z,99033.30
2019-02-10T21:50:06.613Z,99022.88
2019-02-10T21:52:33.750Z,99025.36
2019-02-10T21:55:01.292Z,99015.64
2019-02-10T21:57:30.080Z,99021.44
2019-02-10T21:59:57.860Z,99004.55
2019-02-10T22:02:26.051Z,99003.27
2019-02-10T22:04:52.926Z,99011.80
2019-02-10T22:07:20.282Z,98999.80
2019-02-10T22:09:47.338Z,99007.28
2019-02-10T22:12:14.235Z,99009.82
2019-02-10T22:14:41.866Z,99001.42
2019-02-10T22:17:09.103Z,98999.25
2019-02-10T22:19:37.342Z,99002.32
2019-02-10T22:22:04.527Z,98994.80
2019-02-10T22:24:31.473Z,99005.54
2019-02-10T22:26:58.949Z,98994.09
2019-02-10T22:29:26.089Z,98990.36
2019-02-10T22:31:52.972Z,98993.68
2019-02-10T22:34:20.380Z,98994.72
2019-02-10T22:36:49.732Z,98991.77
2019-02-10T22:39:16.838Z,98990.19
2019-02-10T22:41:43.847Z,98974.59
2019-02-10T22:44:10.805Z,98977.75
2019-02-10T22:46:37.785Z,98972.29
2019-02-10T22:49:05.016Z,98968.61
2019-02-10T22:51:32.033Z,98971.13
2019-02-10T22:53:58.893Z,98967.45
2019-02-10T22:56:26.259Z,98963.95
2019-02-10T22:58:53.170Z,98953.98
2019-02-10T23:01:20.059Z,98952.26
2019-02-10T23:03:46.961Z,98953.54
2019-02-10T23:06:13.919Z,98965.40
2019-02-10T23:08:40.916Z,98956.17
2019-02-10T23:11:07.887Z,98957.52
2019-02-10T23:13:34.963Z,98943.97
2019-02-10T23:16:02.034Z,98942.31
2019-02-10T23:18:28.910Z,98934.59
2019-02-10T23:20:55.885Z,98937.22
2019-02-10T23:23:22.742Z,98937.84
2019-02-10T23:25:49.944Z,98936.20
2019-02-10T23:28:20.026Z,98925.67
2019-02-10T23:30:46.893Z,98920.20
2019-02-10T23:33:13.885Z,98916.65
2019-02-10T23:35:40.893Z,98910.45
2019-02-10T23:38:07.878Z,98907.84
2019-02-10T23:40:35.009Z,98915.38
2019-02-10T23:43:02.487Z,98920.05
2019-02-10T23:45:29.823Z,98916.28
2019-02-10T23:47:56.734Z,98924.66
2019-02-10T23:50:23.683Z,98928.46
2019-02-10T23:52:50.612Z,98918.72
2019-02-10T23:55:17.645Z,98914.73
2019-02-10T23:57:44.777Z,98905.92
